Accueil
Images satellite Prévisions 10 joursClimatMétéo marine Cyclones Foudre AéroportsFAQ Actualités A propos
Météo : Europe Afrique Amérique du Nord Amérique du Sud Asie Australie-Océanie Autres
Langues Contact

Bergerac, France

Aéroport de Bergerac-Dordogne-Périgord

latitude: 44-49N, longitude: 000-31E, altitude: 51 m


METAR: LFBE 040300Z AUTO VRB02KT CAVOK 21/15 Q1018
TAF: LFBE 032300Z 0400/0424 15008KT CAVOK BECMG 0404/0406 30008KT PROB30 TEMPO 0404/0412 BKN015

Heure: 05:17 (03:17 UTC)

Observation

Le bulletin a été fait il y a 17 minutes, à 03:00 UTC
Vent 2 kt de direction variable
Température 21°C
Humidité 69%
Pression 1018 hPa
Visibilité 10 km ou plus
pas de nuages en-dessous de 1500 mètres et pas de cumulonimbus.

Changer d'unités

Prévision

Le bulletin a été fait il y a 4 heures et 17 minutes, à 23:00 UTC
Prévision valable du 04 à 00 UTC au 04 à 24 UTC
Vent 8 kt de sud/sud-est
Visibilité 10 km ou plus
pas de nuages en-dessous de 1500 mètres et pas de cumulonimbus.
Evoluant progressivement
du 04 à 04 UTC au 04 à 06 UTC
Vent 8 kt de ouest/nord-ouest
Probabilité 30% :
Temporairement
du 04 à 04 UTC au 04 à 12 UTC
Nuages fragmentés à une hauteur de 1500 ft
Les informations qui figurent sur ce site font l'objet d'une clause de non-responsabilité
Météo : Europe Afrique Amérique du Nord Amérique du Sud Asie Australie-Océanie Autres
Images satellite Prévisions 10 joursClimatMétéo marine Cyclones Foudre AéroportsFAQ Langues Contact Actualités A propos